Prachin Buri, Thailand
Current Conditions -  °F | °C
As of 1:30 AM on Wednesday 22 Oct 2014 (Local Time) from VTBS Reporting Station
Scattered Clouds Scattered Clouds  
Wind Chill: 82°   Ceiling: Unl
Heat Index: 88°   Visibility: 6mi
Dew Point: 73°   Wind: 3mph
Humidity: 74%   Direction: 20°NNE
Pressure: 29.91"   Gusts: NA
Location:  14.05°N, 101.38°E
Report Text: VTBS 211830Z 02003KT 350V060 9999 FEW030 SCT300 28/23 Q1013 NOSIG
Loading
Personal Weather Stations






























Interactive Weather Map
Tropical Storm Tracking
New forecast layout! Learn more

10-Day Weather Forecast

Advertisements
Track Severe Weather on mobile